Tabellarische Übersicht vom Sonntag, den 02.10.2022

Oder anderes Datum wählen:






max 16,5°C 94,0% 13,2°C 1017,2hPa 15,0°C 25,6km/h (4Bft) 9,4km/h 313° (NW) ∑0,0l/m² 52,000klx ∑1,2min
min 11,5°C 70,0% 9,8°C 1013,1hPa 6,0°C 8,3km/h (2Bft) 3,4km/h 203° (SW) ∑0,0l/m² 0,000klx ∑1,2min
Ø 13,6°C 88,0% 11,6°C 1015,0hPa 10,0°C 14,4km/h (3Bft) 6,4km/h 234° (SW) ∑0,0l/m² 16,000klx ∑1,2min
Zeit Temperatur Luftfeuchte Taupunkt Luftdruck Windchill Windböen Windgeschwindigkeit Windrichtung Regen Helligkeit Regenzeit
14:40 16,3°C 71,0% 11,0°C 1017,2hPa 16,3°C 10,4km/h (2Bft) 4,8km/h 258° (W) 0,0l/m² 16,013klx 0,0min
14:35 16,3°C 70,2% 10,9°C 1017,2hPa 16,3°C 16,6km/h (3Bft) 5,8km/h 293° (NW) 0,0l/m² 15,323klx 0,0min
14:30 16,6°C 71,6% 11,4°C 1017,2hPa 16,6°C 13,0km/h (3Bft) 5,9km/h 313° (NW) 0,0l/m² 20,646klx 0,0min
14:25 16,5°C 71,8% 11,4°C 1017,2hPa 16,5°C 11,2km/h (2Bft) 4,9km/h 294° (NW) 0,0l/m² 28,541klx 0,0min
14:20 16,4°C 72,6% 11,4°C 1017,2hPa 16,4°C 12,6km/h (3Bft) 4,8km/h 304° (NW) 0,0l/m² 30,971klx 0,0min
14:15 16,3°C 71,4% 11,1°C 1017,2hPa 16,3°C 13,0km/h (3Bft) 5,1km/h 261° (W) 0,0l/m² 24,412klx 0,0min
14:10 16,2°C 71,8% 11,1°C 1017,1hPa 16,2°C 15,8km/h (3Bft) 5,5km/h 283° (W) 0,0l/m² 27,630klx 0,0min
14:05 16,3°C 71,4% 11,1°C 1017,2hPa 16,3°C 16,2km/h (3Bft) 5,2km/h 298° (NW) 0,0l/m² 17,990klx 0,0min
14:00 16,4°C 71,7% 11,2°C 1017,2hPa 16,4°C 15,8km/h (3Bft) 5,3km/h 285° (W) 0,0l/m² 20,325klx 0,0min
13:55 16,4°C 72,0% 11,4°C 1017,2hPa 16,4°C 9,7km/h (2Bft) 4,5km/h 285° (W) 0,0l/m² 26,091klx 0,0min
13:50 16,4°C 72,8% 11,5°C 1017,2hPa 16,4°C 15,1km/h (3Bft) 6,4km/h 261° (W) 0,0l/m² 37,468klx 0,0min
13:45 16,1°C 75,2% 11,7°C 1017,2hPa 16,1°C 12,6km/h (3Bft) 4,9km/h 278° (W) 0,0l/m² 33,106klx 0,0min
13:40 15,9°C 75,0% 11,5°C 1017,1hPa 15,9°C 13,0km/h (3Bft) 4,1km/h 301° (NW) 0,0l/m² 25,293klx 0,0min
13:35 15,9°C 74,8% 11,4°C 1017,0hPa 15,9°C 11,5km/h (2Bft) 5,5km/h 270° (W) 0,0l/m² 12,927klx 0,0min
13:30 16,0°C 74,8% 11,5°C 1017,0hPa 16,0°C 13,3km/h (3Bft) 5,3km/h 271° (W) 0,0l/m² 19,689klx 0,0min
13:25 16,1°C 76,6% 12,0°C 1017,0hPa 15,8°C 15,1km/h (3Bft) 6,9km/h 287° (W) 0,0l/m² 30,959klx 0,0min
13:20 16,2°C 77,4% 12,3°C 1016,9hPa 16,2°C 8,3km/h (2Bft) 3,4km/h 269° (W) 0,0l/m² 19,529klx 0,0min
13:15 16,3°C 74,9% 11,8°C 1016,9hPa 16,3°C 19,8km/h (3Bft) 6,0km/h 282° (W) 0,0l/m² 43,504klx 0,0min
13:10 16,2°C 76,2% 12,0°C 1016,9hPa 15,2°C 17,6km/h (3Bft) 8,3km/h 255° (W) 0,0l/m² 52,128klx 0,0min
13:05 16,0°C 78,5% 12,3°C 1016,8hPa 16,0°C 14,4km/h (3Bft) 5,4km/h 267° (W) 0,0l/m² 51,238klx 0,0min
13:00 15,8°C 78,5% 12,1°C 1016,8hPa 15,8°C 13,0km/h (3Bft) 6,0km/h 261° (W) 0,0l/m² 47,075klx 0,0min
12:55 15,7°C 80,2% 12,3°C 1016,7hPa 15,7°C 10,8km/h (2Bft) 4,5km/h 291° (W) 0,0l/m² 24,579klx 0,0min
12:50 15,7°C 80,6% 12,3°C 1016,7hPa 15,7°C 11,5km/h (2Bft) 5,7km/h 300° (NW) 0,0l/m² 38,466klx 0,0min
12:45 15,7°C 80,1% 12,2°C 1016,6hPa 15,7°C 15,8km/h (3Bft) 5,2km/h 273° (W) 0,0l/m² 26,580klx 0,0min
12:40 15,7°C 81,4% 12,5°C 1016,6hPa 15,7°C 14,8km/h (3Bft) 5,2km/h 288° (W) 0,0l/m² 27,712klx 0,0min
12:35 15,7°C 81,4% 12,6°C 1016,5hPa 15,7°C 13,7km/h (3Bft) 5,5km/h 244° (SW) 0,0l/m² 30,063klx 0,0min
12:30 15,7°C 82,1% 12,7°C 1016,5hPa 15,7°C 12,6km/h (3Bft) 5,1km/h 274° (W) 0,0l/m² 29,398klx 0,0min
12:25 15,7°C 82,2% 12,6°C 1016,4hPa 15,7°C 12,2km/h (3Bft) 5,6km/h 267° (W) 0,0l/m² 28,415klx 0,0min
12:20 15,6°C 82,2% 12,5°C 1016,4hPa 15,6°C 15,1km/h (3Bft) 6,0km/h 279° (W) 0,0l/m² 31,149klx 0,0min
12:15 15,4°C 84,2% 12,7°C 1016,4hPa 14,7°C 19,4km/h (3Bft) 7,7km/h 258° (W) 0,0l/m² 37,592klx 0,0min
12:10 15,1°C 85,7% 12,7°C 1016,4hPa 15,1°C 12,2km/h (3Bft) 4,3km/h 274° (W) 0,0l/m² 26,283klx 0,0min
12:05 15,0°C 86,5% 12,8°C 1016,4hPa 15,0°C 14,4km/h (3Bft) 5,5km/h 251° (W) 0,0l/m² 24,697klx 0,0min
12:00 15,0°C 86,9% 12,8°C 1016,4hPa 15,0°C 10,4km/h (2Bft) 4,4km/h 260° (W) 0,0l/m² 15,177klx 0,0min
11:55 15,1°C 86,1% 12,8°C 1016,4hPa 15,1°C 14,0km/h (3Bft) 6,3km/h 238° (SW) 0,0l/m² 9,493klx 0,2min
11:50 15,3°C 85,7% 12,9°C 1016,4hPa 15,3°C 18,4km/h (3Bft) 5,1km/h 218° (SW) 0,0l/m² 13,095klx 0,0min
11:45 15,3°C 85,4% 12,9°C 1016,3hPa 15,3°C 14,4km/h (3Bft) 5,2km/h 270° (W) 0,0l/m² 15,546klx 0,0min
11:40 15,4°C 85,1% 12,9°C 1016,2hPa 15,4°C 25,6km/h (4Bft) 6,3km/h 290° (W) 0,0l/m² 22,961klx 0,0min
11:35 15,2°C 86,2% 12,9°C 1016,2hPa 15,2°C 13,0km/h (3Bft) 6,2km/h 238° (SW) 0,0l/m² 24,422klx 0,0min
11:30 15,1°C 86,7% 12,9°C 1016,2hPa 14,3°C 19,4km/h (3Bft) 7,9km/h 233° (SW) 0,0l/m² 21,844klx 0,0min
11:25 15,0°C 87,4% 12,9°C 1016,2hPa 15,0°C 12,6km/h (3Bft) 5,3km/h 279° (W) 0,0l/m² 23,030klx 0,0min
11:20 14,8°C 88,8% 13,0°C 1016,1hPa 14,8°C 13,7km/h (3Bft) 5,0km/h 258° (W) 0,0l/m² 20,651klx 0,0min
11:15 14,7°C 88,9% 12,9°C 1016,1hPa 14,7°C 9,4km/h (2Bft) 4,3km/h 239° (SW) 0,0l/m² 14,313klx 0,0min
11:10 14,9°C 87,6% 12,9°C 1016,0hPa 14,9°C 12,6km/h (3Bft) 5,5km/h 226° (SW) 0,0l/m² 6,404klx 1,1min
11:05 15,2°C 86,4% 13,0°C 1016,0hPa 15,2°C 11,2km/h (2Bft) 4,9km/h 225° (SW) 0,0l/m² 6,178klx 0,0min
11:00 15,6°C 85,5% 13,1°C 1016,0hPa 15,6°C 14,4km/h (3Bft) 6,4km/h 224° (SW) 0,0l/m² 16,426klx 0,0min
10:55 15,6°C 85,0% 13,1°C 1016,0hPa 15,6°C 11,9km/h (2Bft) 5,1km/h 219° (SW) 0,0l/m² 23,721klx 0,0min
10:50 15,7°C 84,1% 13,0°C 1016,0hPa 15,7°C 15,8km/h (3Bft) 4,9km/h 263° (W) 0,0l/m² 29,235klx 0,0min
10:45 15,4°C 87,0% 13,2°C 1016,0hPa 15,4°C 11,5km/h (2Bft) 4,3km/h 251° (W) 0,0l/m² 37,322klx 0,0min
10:40 14,6°C 88,7% 12,8°C 1016,0hPa 14,6°C 11,5km/h (2Bft) 4,5km/h 269° (W) 0,0l/m² 23,920klx 0,0min
10:35 14,4°C 89,5% 12,7°C 1016,0hPa 14,4°C 11,2km/h (2Bft) 4,3km/h 247° (SW) 0,0l/m² 16,799klx 0,0min
10:30 14,3°C 89,8% 12,6°C 1016,0hPa 14,3°C 16,2km/h (3Bft) 5,9km/h 238° (SW) 0,0l/m² 9,223klx 0,0min
10:25 14,3°C 89,5% 12,6°C 1015,9hPa 14,3°C 11,2km/h (2Bft) 5,0km/h 257° (W) 0,0l/m² 7,919klx 0,0min
10:20 14,4°C 89,5% 12,7°C 1015,9hPa 14,2°C 15,5km/h (3Bft) 6,7km/h 232° (SW) 0,0l/m² 8,819klx 0,0min
10:15 14,4°C 89,3% 12,6°C 1015,9hPa 14,4°C 17,3km/h (3Bft) 6,3km/h 234° (SW) 0,0l/m² 11,535klx 0,0min
10:10 14,4°C 89,1% 12,6°C 1015,9hPa 14,4°C 11,9km/h (2Bft) 4,2km/h 257° (W) 0,0l/m² 11,691klx 0,0min
10:05 14,4°C 88,9% 12,6°C 1015,8hPa 14,0°C 16,6km/h (3Bft) 7,0km/h 243° (SW) 0,0l/m² 12,278klx 0,0min
10:00 14,4°C 89,2% 12,6°C 1015,8hPa 14,4°C 11,5km/h (2Bft) 5,6km/h 224° (SW) 0,0l/m² 13,820klx 0,0min
09:55 14,3°C 89,3% 12,6°C 1015,8hPa 14,3°C 16,6km/h (3Bft) 6,2km/h 234° (SW) 0,0l/m² 14,146klx 0,0min
09:50 14,2°C 89,8% 12,6°C 1015,7hPa 13,4°C 19,1km/h (3Bft) 7,9km/h 220° (SW) 0,0l/m² 14,512klx 0,0min
09:45 14,1°C 89,7% 12,5°C 1015,7hPa 14,1°C 19,1km/h (3Bft) 6,1km/h 248° (W) 0,0l/m² 13,495klx 0,0min
09:40 14,1°C 90,3% 12,5°C 1015,6hPa 14,1°C 15,8km/h (3Bft) 6,1km/h 224° (SW) 0,0l/m² 11,606klx 0,0min
09:35 14,0°C 90,4% 12,4°C 1015,5hPa 14,0°C 10,8km/h (2Bft) 4,3km/h 235° (SW) 0,0l/m² 11,127klx 0,0min
09:30 13,9°C 90,6% 12,4°C 1015,4hPa 13,7°C 15,1km/h (3Bft) 6,7km/h 248° (W) 0,0l/m² 11,056klx 0,0min
09:25 13,9°C 90,9% 12,4°C 1015,3hPa 13,9°C 16,2km/h (3Bft) 6,3km/h 217° (SW) 0,0l/m² 8,468klx 0,0min
09:20 13,8°C 90,8% 12,3°C 1015,3hPa 13,2°C 14,8km/h (3Bft) 7,4km/h 230° (SW) 0,0l/m² 8,386klx 0,0min
09:15 13,8°C 91,0% 12,3°C 1015,3hPa 12,8°C 19,8km/h (3Bft) 8,1km/h 222° (SW) 0,0l/m² 7,970klx 0,0min
09:10 13,7°C 91,2% 12,3°C 1015,3hPa 13,7°C 15,8km/h (3Bft) 5,7km/h 222° (SW) 0,0l/m² 9,500klx 0,0min
09:05 13,6°C 91,5% 12,3°C 1015,3hPa 12,6°C 17,3km/h (3Bft) 8,2km/h 228° (SW) 0,0l/m² 8,981klx 0,0min
09:00 13,6°C 91,4% 12,2°C 1015,3hPa 13,6°C 13,7km/h (3Bft) 6,1km/h 239° (SW) 0,0l/m² 7,853klx 0,0min
08:55 13,5°C 91,5% 12,2°C 1015,1hPa 13,1°C 13,7km/h (3Bft) 7,1km/h 224° (SW) 0,0l/m² 7,426klx 0,0min
08:50 13,5°C 91,5% 12,1°C 1015,2hPa 13,5°C 16,6km/h (3Bft) 6,0km/h 226° (SW) 0,0l/m² 6,670klx 0,0min
08:45 13,4°C 91,6% 12,1°C 1015,1hPa 13,2°C 13,0km/h (3Bft) 6,7km/h 223° (SW) 0,0l/m² 6,072klx 0,0min
08:40 13,3°C 92,1% 12,0°C 1015,0hPa 13,1°C 15,8km/h (3Bft) 6,7km/h 225° (SW) 0,0l/m² 4,901klx 0,0min
08:35 13,1°C 92,6% 12,0°C 1015,0hPa 13,1°C 13,7km/h (3Bft) 6,3km/h 209° (SW) 0,0l/m² 4,524klx 0,0min
08:30 13,1°C 92,7% 11,9°C 1014,9hPa 13,1°C 9,7km/h (2Bft) 4,8km/h 219° (SW) 0,0l/m² 3,819klx 0,0min
08:25 13,0°C 92,9% 11,8°C 1015,0hPa 12,0°C 15,5km/h (3Bft) 8,0km/h 207° (SW) 0,0l/m² 2,886klx 0,0min
08:20 12,9°C 92,8% 11,8°C 1015,0hPa 12,9°C 11,9km/h (2Bft) 5,8km/h 219° (SW) 0,0l/m² 2,642klx 0,0min
08:15 12,9°C 92,7% 11,8°C 1014,9hPa 12,9°C 15,5km/h (3Bft) 6,2km/h 226° (SW) 0,0l/m² 2,294klx 0,0min
08:10 12,9°C 92,7% 11,8°C 1014,8hPa 12,9°C 9,7km/h (2Bft) 4,7km/h 230° (SW) 0,0l/m² 1,953klx 0,0min
08:05 12,9°C 92,8% 11,7°C 1014,7hPa 12,8°C 13,3km/h (3Bft) 6,5km/h 217° (SW) 0,0l/m² 1,453klx 0,0min
08:00 12,9°C 92,4% 11,7°C 1014,6hPa 12,6°C 20,2km/h (4Bft) 6,9km/h 227° (SW) 0,0l/m² 1,324klx 0,0min
07:55 12,9°C 91,9% 11,6°C 1014,6hPa 12,6°C 19,1km/h (3Bft) 7,0km/h 218° (SW) 0,0l/m² 1,185klx 0,0min
07:50 13,0°C 91,5% 11,6°C 1014,5hPa 12,5°C 15,5km/h (3Bft) 7,2km/h 218° (SW) 0,0l/m² 0,948klx 0,0min
07:45 13,0°C 91,5% 11,6°C 1014,6hPa 12,1°C 15,1km/h (3Bft) 7,8km/h 221° (SW) 0,0l/m² 0,668klx 0,0min
07:40 12,9°C 91,6% 11,5°C 1014,6hPa 12,2°C 15,1km/h (3Bft) 7,4km/h 230° (SW) 0,0l/m² 0,456klx 0,0min
07:35 12,8°C 91,4% 11,4°C 1014,5hPa 11,9°C 17,3km/h (3Bft) 7,9km/h 217° (SW) 0,0l/m² 0,339klx 0,0min
07:30 12,8°C 91,2% 11,4°C 1014,5hPa 12,7°C 13,0km/h (3Bft) 6,7km/h 225° (SW) 0,0l/m² 0,212klx 0,0min
07:25 12,9°C 90,9% 11,5°C 1014,5hPa 12,9°C 13,3km/h (3Bft) 5,5km/h 223° (SW) 0,0l/m² 0,095klx 0,0min
07:20 13,0°C 91,0% 11,6°C 1014,5hPa 13,0°C 13,7km/h (3Bft) 6,1km/h 221° (SW) 0,0l/m² 0,045klx 0,0min
07:15 13,0°C 91,5% 11,6°C 1014,4hPa 12,8°C 17,6km/h (3Bft) 6,7km/h 220° (SW) 0,0l/m² 0,022klx 0,0min
07:10 13,1°C 91,6% 11,7°C 1014,3hPa 13,1°C 10,4km/h (2Bft) 5,0km/h 219° (SW) 0,0l/m² 0,009klx 0,0min
07:05 13,2°C 91,5% 11,8°C 1014,3hPa 13,2°C 9,0km/h (2Bft) 4,2km/h 233° (SW) 0,0l/m² 0,004klx 0,0min
07:00 13,2°C 91,3% 11,8°C 1014,3hPa 13,2°C 14,0km/h (3Bft) 6,0km/h 227° (SW) 0,0l/m² 0,002klx 0,0min
06:55 13,3°C 91,4% 11,9°C 1014,4hPa 12,3°C 23,0km/h (4Bft) 8,0km/h 219° (SW) 0,0l/m² 0,001klx 0,0min
06:50 13,3°C 91,5% 12,0°C 1014,4hPa 12,3°C 17,3km/h (3Bft) 8,1km/h 229° (SW) 0,0l/m² 0,001klx 0,0min
06:45 13,3°C 91,7% 12,0°C 1014,3hPa 12,1°C 19,1km/h (3Bft) 8,5km/h 231° (SW) 0,0l/m² 0,000klx 0,0min
06:40 13,4°C 91,7% 12,0°C 1014,2hPa 12,8°C 16,6km/h (3Bft) 7,4km/h 213° (SW) 0,0l/m² 0,000klx 0,0min
06:35 13,4°C 91,9% 12,1°C 1014,2hPa 13,3°C 17,3km/h (3Bft) 6,5km/h 222° (SW) 0,0l/m² 0,000klx 0,0min
06:30 13,4°C 92,3% 12,2°C 1014,2hPa 12,7°C 16,6km/h (3Bft) 7,6km/h 221° (SW) 0,0l/m² 0,000klx 0,0min
06:25 13,3°C 92,7% 12,2°C 1014,1hPa 13,0°C 16,6km/h (3Bft) 7,0km/h 214° (SW) 0,0l/m² 0,000klx 0,0min
06:20 13,3°C 92,8% 12,1°C 1014,1hPa 13,0°C 12,6km/h (3Bft) 6,8km/h 219° (SW) 0,0l/m² 0,000klx 0,0min
06:15 13,3°C 93,0% 12,2°C 1014,1hPa 13,3°C 10,8km/h (2Bft) 4,9km/h 234° (SW) 0,0l/m² 0,000klx 0,0min
06:10 13,2°C 93,5% 12,1°C 1014,1hPa 13,2°C 16,2km/h (3Bft) 6,0km/h 255° (W) 0,0l/m² 0,000klx 0,0min
06:05 13,1°C 93,6% 12,1°C 1014,1hPa 13,1°C 8,3km/h (2Bft) 4,2km/h 235° (SW) 0,0l/m² 0,000klx 0,0min
06:00 13,0°C 93,5% 12,0°C 1014,1hPa 13,0°C 12,2km/h (3Bft) 5,5km/h 242° (SW) 0,0l/m² 0,000klx 0,0min
05:55 13,0°C 93,5% 12,0°C 1014,1hPa 12,8°C 14,8km/h (3Bft) 6,7km/h 225° (SW) 0,0l/m² 0,000klx 0,0min
05:50 13,0°C 93,5% 12,0°C 1014,1hPa 13,0°C 13,3km/h (3Bft) 5,5km/h 212° (SW) 0,0l/m² 0,000klx 0,0min
05:45 12,9°C 93,7% 11,9°C 1014,1hPa 12,3°C 15,8km/h (3Bft) 7,4km/h 220° (SW) 0,0l/m² 0,000klx 0,0min
05:40 12,9°C 93,4% 11,9°C 1014,1hPa 12,9°C 13,7km/h (3Bft) 6,5km/h 218° (SW) 0,0l/m² 0,000klx 0,0min
05:35 12,9°C 93,4% 11,9°C 1014,1hPa 12,5°C 17,3km/h (3Bft) 7,1km/h 221° (SW) 0,0l/m² 0,000klx 0,0min
05:30 12,9°C 93,2% 11,9°C 1014,2hPa 12,6°C 14,8km/h (3Bft) 7,0km/h 219° (SW) 0,0l/m² 0,000klx 0,0min
05:25 12,9°C 93,5% 11,9°C 1014,2hPa 12,4°C 15,5km/h (3Bft) 7,2km/h 213° (SW) 0,0l/m² 0,000klx 0,0min
05:20 12,9°C 93,2% 11,8°C 1014,1hPa 12,0°C 16,2km/h (3Bft) 7,8km/h 220° (SW) 0,0l/m² 0,000klx 0,0min
05:15 12,9°C 93,2% 11,8°C 1014,1hPa 12,9°C 14,4km/h (3Bft) 6,0km/h 226° (SW) 0,0l/m² 0,000klx 0,0min
05:10 12,9°C 93,2% 11,8°C 1014,1hPa 12,6°C 14,0km/h (3Bft) 6,8km/h 222° (SW) 0,0l/m² 0,000klx 0,0min
05:05 12,8°C 93,1% 11,8°C 1014,1hPa 12,5°C 14,8km/h (3Bft) 6,9km/h 222° (SW) 0,0l/m² 0,000klx 0,0min
05:00 12,8°C 93,1% 11,7°C 1014,0hPa 12,1°C 14,8km/h (3Bft) 7,6km/h 217° (SW) 0,0l/m² 0,000klx 0,0min
04:55 12,8°C 93,2% 11,7°C 1014,1hPa 12,7°C 11,9km/h (2Bft) 6,6km/h 221° (SW) 0,0l/m² 0,000klx 0,0min
04:50 12,8°C 93,1% 11,7°C 1014,1hPa 12,8°C 15,8km/h (3Bft) 6,3km/h 227° (SW) 0,0l/m² 0,000klx 0,0min
04:45 12,8°C 93,1% 11,7°C 1014,2hPa 12,4°C 13,7km/h (3Bft) 6,9km/h 216° (SW) 0,0l/m² 0,000klx 0,0min
04:40 12,7°C 93,1% 11,7°C 1014,2hPa 12,7°C 12,2km/h (3Bft) 5,4km/h 225° (SW) 0,0l/m² 0,000klx 0,0min
04:35 12,7°C 93,1% 11,6°C 1014,2hPa 12,7°C 15,1km/h (3Bft) 6,3km/h 228° (SW) 0,0l/m² 0,000klx 0,0min
04:30 12,7°C 92,8% 11,6°C 1014,2hPa 12,7°C 14,8km/h (3Bft) 6,4km/h 223° (SW) 0,0l/m² 0,000klx 0,0min
04:25 12,7°C 92,6% 11,5°C 1014,1hPa 12,4°C 16,9km/h (3Bft) 6,9km/h 220° (SW) 0,0l/m² 0,000klx 0,0min
04:20 12,7°C 92,4% 11,5°C 1014,1hPa 11,9°C 15,1km/h (3Bft) 7,8km/h 214° (SW) 0,0l/m² 0,000klx 0,0min
04:15 12,8°C 92,2% 11,5°C 1014,1hPa 12,7°C 13,7km/h (3Bft) 6,5km/h 222° (SW) 0,0l/m² 0,000klx 0,0min
04:10 12,9°C 91,4% 11,5°C 1014,2hPa 12,9°C 13,7km/h (3Bft) 6,2km/h 216° (SW) 0,0l/m² 0,000klx 0,0min
04:05 12,9°C 91,5% 11,6°C 1014,2hPa 12,4°C 12,2km/h (3Bft) 7,3km/h 223° (SW) 0,0l/m² 0,000klx 0,0min
04:00 12,9°C 91,9% 11,6°C 1014,2hPa 11,9°C 16,2km/h (3Bft) 7,9km/h 216° (SW) 0,0l/m² 0,000klx 0,0min
03:55 12,8°C 92,0% 11,5°C 1014,2hPa 11,9°C 19,1km/h (3Bft) 7,9km/h 224° (SW) 0,0l/m² 0,000klx 0,0min
03:50 12,7°C 92,4% 11,5°C 1014,3hPa 12,3°C 15,5km/h (3Bft) 7,1km/h 221° (SW) 0,0l/m² 0,000klx 0,0min
03:45 12,5°C 92,8% 11,4°C 1014,2hPa 12,1°C 15,8km/h (3Bft) 7,0km/h 219° (SW) 0,0l/m² 0,000klx 0,0min
03:40 12,4°C 93,3% 11,3°C 1014,2hPa 11,5°C 15,5km/h (3Bft) 7,8km/h 221° (SW) 0,0l/m² 0,000klx 0,0min
03:35 12,2°C 93,5% 11,2°C 1014,1hPa 11,2°C 14,4km/h (3Bft) 8,0km/h 219° (SW) 0,0l/m² 0,000klx 0,0min
03:30 12,1°C 93,3% 11,1°C 1014,1hPa 11,0°C 16,2km/h (3Bft) 8,1km/h 212° (SW) 0,0l/m² 0,000klx 0,0min
03:25 12,0°C 93,3% 11,0°C 1014,1hPa 11,5°C 14,4km/h (3Bft) 7,2km/h 225° (SW) 0,0l/m² 0,000klx 0,0min
03:20 12,0°C 93,0% 10,9°C 1014,1hPa 11,9°C 11,9km/h (2Bft) 6,5km/h 214° (SW) 0,0l/m² 0,000klx 0,0min
03:15 12,0°C 93,0% 10,9°C 1014,0hPa 12,0°C 12,2km/h (3Bft) 6,2km/h 210° (SW) 0,0l/m² 0,000klx 0,0min
03:10 11,9°C 92,9% 10,8°C 1014,0hPa 11,9°C 11,9km/h (2Bft) 6,5km/h 211° (SW) 0,0l/m² 0,000klx 0,0min
03:05 11,9°C 92,6% 10,8°C 1014,0hPa 11,9°C 10,1km/h (2Bft) 6,3km/h 210° (SW) 0,0l/m² 0,000klx 0,0min
03:00 12,0°C 92,3% 10,7°C 1014,0hPa 12,0°C 11,9km/h (2Bft) 5,9km/h 208° (SW) 0,0l/m² 0,000klx 0,0min
02:55 12,0°C 92,3% 10,7°C 1014,0hPa 11,7°C 13,0km/h (3Bft) 6,8km/h 218° (SW) 0,0l/m² 0,000klx 0,0min
02:50 11,9°C 92,1% 10,7°C 1014,0hPa 11,3°C 14,8km/h (3Bft) 7,3km/h 219° (SW) 0,0l/m² 0,000klx 0,0min
02:45 12,0°C 91,4% 10,6°C 1014,0hPa 12,0°C 10,8km/h (2Bft) 6,2km/h 212° (SW) 0,0l/m² 0,000klx 0,0min
02:40 12,0°C 91,6% 10,6°C 1014,0hPa 11,1°C 12,6km/h (3Bft) 7,7km/h 214° (SW) 0,0l/m² 0,000klx 0,0min
02:35 12,0°C 91,2% 10,6°C 1013,9hPa 11,7°C 14,4km/h (3Bft) 6,8km/h 211° (SW) 0,0l/m² 0,000klx 0,0min
02:30 11,9°C 90,9% 10,5°C 1013,9hPa 11,5°C 14,4km/h (3Bft) 7,0km/h 216° (SW) 0,0l/m² 0,000klx 0,0min
02:25 11,9°C 90,8% 10,4°C 1013,8hPa 11,6°C 13,7km/h (3Bft) 6,8km/h 217° (SW) 0,0l/m² 0,000klx 0,0min
02:20 11,9°C 90,5% 10,3°C 1013,8hPa 11,3°C 13,7km/h (3Bft) 7,2km/h 214° (SW) 0,0l/m² 0,000klx 0,0min
02:15 11,9°C 90,3% 10,3°C 1013,9hPa 11,2°C 18,4km/h (3Bft) 7,4km/h 213° (SW) 0,0l/m² 0,000klx 0,0min
02:10 11,9°C 89,9% 10,3°C 1013,9hPa 11,8°C 14,8km/h (3Bft) 6,6km/h 219° (SW) 0,0l/m² 0,000klx 0,0min
02:05 11,9°C 89,7% 10,2°C 1013,8hPa 10,9°C 15,5km/h (3Bft) 7,9km/h 214° (SW) 0,0l/m² 0,000klx 0,0min
02:00 11,8°C 89,6% 10,2°C 1013,8hPa 11,0°C 15,5km/h (3Bft) 7,6km/h 218° (SW) 0,0l/m² 0,000klx 0,0min
01:55 11,8°C 89,2% 10,1°C 1013,8hPa 11,1°C 15,5km/h (3Bft) 7,5km/h 213° (SW) 0,0l/m² 0,000klx 0,0min
01:50 11,8°C 88,9% 10,1°C 1013,8hPa 10,8°C 16,6km/h (3Bft) 8,0km/h 222° (SW) 0,0l/m² 0,000klx 0,0min
01:45 11,9°C 88,5% 10,0°C 1013,7hPa 11,0°C 13,0km/h (3Bft) 7,7km/h 203° (SW) 0,0l/m² 0,000klx 0,0min
01:40 11,8°C 88,4% 10,0°C 1013,7hPa 10,4°C 16,6km/h (3Bft) 8,6km/h 204° (SW) 0,0l/m² 0,000klx 0,0min
01:35 11,8°C 88,1% 9,9°C 1013,6hPa 11,3°C 13,0km/h (3Bft) 7,2km/h 216° (SW) 0,0l/m² 0,000klx 0,0min
01:30 11,9°C 87,9% 9,9°C 1013,6hPa 11,5°C 15,1km/h (3Bft) 7,0km/h 213° (SW) 0,0l/m² 0,000klx 0,0min
01:25 11,9°C 87,4% 9,9°C 1013,6hPa 11,8°C 17,3km/h (3Bft) 6,6km/h 211° (SW) 0,0l/m² 0,000klx 0,0min
01:20 12,0°C 86,8% 9,9°C 1013,6hPa 11,9°C 15,5km/h (3Bft) 6,7km/h 210° (SW) 0,0l/m² 0,000klx 0,0min
01:15 12,1°C 86,5% 9,9°C 1013,7hPa 11,2°C 16,2km/h (3Bft) 7,8km/h 213° (SW) 0,0l/m² 0,000klx 0,0min
01:10 12,0°C 86,7% 9,8°C 1013,7hPa 10,2°C 18,7km/h (3Bft) 9,4km/h 213° (SW) 0,0l/m² 0,000klx 0,0min
01:05 11,9°C 87,1% 9,8°C 1013,7hPa 10,9°C 14,0km/h (3Bft) 7,9km/h 214° (SW) 0,0l/m² 0,000klx 0,0min
01:00 11,8°C 87,7% 9,8°C 1013,6hPa 10,7°C 14,4km/h (3Bft) 8,0km/h 213° (SW) 0,0l/m² 0,000klx 0,0min
00:55 11,7°C 88,1% 9,8°C 1013,6hPa 11,1°C 14,0km/h (3Bft) 7,4km/h 221° (SW) 0,0l/m² 0,000klx 0,0min
00:50 11,8°C 87,7% 9,8°C 1013,6hPa 11,8°C 13,3km/h (3Bft) 6,0km/h 218° (SW) 0,0l/m² 0,000klx 0,0min
00:45 11,8°C 87,8% 9,8°C 1013,5hPa 11,7°C 12,2km/h (3Bft) 6,5km/h 214° (SW) 0,0l/m² 0,000klx 0,0min
00:40 11,6°C 88,8% 9,8°C 1013,5hPa 10,9°C 16,6km/h (3Bft) 7,4km/h 207° (SW) 0,0l/m² 0,000klx 0,0min
00:35 11,5°C 89,0% 9,8°C 1013,5hPa 11,5°C 13,0km/h (3Bft) 6,4km/h 203° (SW) 0,0l/m² 0,000klx 0,0min
00:30 11,7°C 88,5% 9,8°C 1013,4hPa 11,7°C 10,8km/h (2Bft) 5,1km/h 204° (SW) 0,0l/m² 0,000klx 0,0min
00:25 11,8°C 87,7% 9,9°C 1013,4hPa 11,8°C 9,7km/h (2Bft) 4,9km/h 220° (SW) 0,0l/m² 0,000klx 0,0min
00:20 11,9°C 87,6% 9,9°C 1013,3hPa 11,9°C 10,4km/h (2Bft) 6,0km/h 219° (SW) 0,0l/m² 0,000klx 0,0min
00:15 11,9°C 87,5% 9,9°C 1013,3hPa 11,9°C 12,2km/h (3Bft) 6,0km/h 223° (SW) 0,0l/m² 0,000klx 0,0min
00:10 12,1°C 86,6% 9,9°C 1013,3hPa 11,9°C 14,0km/h (3Bft) 6,7km/h 220° (SW) 0,0l/m² 0,000klx 0,0min
00:05 12,1°C 86,8% 9,9°C 1013,2hPa 11,8°C 12,2km/h (3Bft) 6,9km/h 221° (SW) 0,0l/m² 0,000klx 0,0min
00:00 12,0°C 86,8% 9,9°C 1013,1hPa 12,0°C 13,0km/h (3Bft) 6,3km/h 222° (SW) 0,0l/m² 0,000klx 0,0min

Aktuelle Wetterdaten

02.10.2022 14:40 Uhr